createdAt,value
2023-05-05T00:03:20.837Z,12.70
2023-05-05T00:08:23.830Z,11.17
2023-05-05T00:13:26.385Z,10.34
2023-05-05T00:18:29.532Z,9.83
2023-05-05T00:23:32.219Z,11.78
2023-05-05T00:28:34.764Z,12.34
2023-05-05T00:33:37.353Z,10.89
2023-05-05T00:38:39.949Z,10.08
2023-05-05T00:43:42.660Z,11.89
2023-05-05T00:48:45.526Z,12.03
2023-05-05T00:53:48.901Z,10.63
2023-05-05T00:58:51.491Z,10.09
2023-05-05T01:03:54.195Z,13.09
2023-05-05T01:09:21.024Z,12.06
2023-05-05T01:14:40.811Z,10.41
2023-05-05T01:20:02.660Z,12.30
2023-05-05T01:25:31.203Z,12.44
2023-05-05T01:31:18.904Z,10.49
2023-05-05T01:36:36.138Z,12.28
2023-05-05T01:41:47.994Z,11.04
2023-05-05T01:46:53.358Z,11.39
2023-05-05T01:51:57.946Z,11.51
2023-05-05T01:57:04.931Z,10.50
2023-05-05T02:02:12.004Z,12.93
2023-05-05T02:07:16.907Z,11.18
2023-05-05T02:12:22.437Z,10.95
2023-05-05T02:17:27.614Z,12.56
2023-05-05T02:22:31.696Z,10.63
2023-05-05T02:27:41.563Z,11.63
2023-05-05T02:33:00.668Z,11.92
2023-05-05T02:38:06.367Z,10.27
2023-05-05T02:43:15.505Z,12.17
2023-05-05T02:48:18.184Z,10.30
2023-05-05T02:53:25.780Z,11.31
2023-05-05T02:58:48.988Z,10.37
2023-05-05T03:04:34.896Z,10.13
2023-05-05T03:09:45.807Z,11.87
2023-05-05T03:14:55.426Z,9.86
2023-05-05T03:19:58.459Z,11.64
2023-05-05T03:25:00.988Z,10.73
2023-05-05T03:30:04.218Z,10.05
2023-05-05T03:35:07.525Z,11.69
2023-05-05T03:40:11.197Z,9.93
2023-05-05T03:45:13.839Z,11.09
2023-05-05T03:50:16.692Z,11.69
2023-05-05T03:55:19.380Z,9.87
2023-05-05T04:00:22.149Z,10.52
2023-05-05T04:05:25.355Z,11.51
2023-05-05T04:10:28.114Z,9.98
2023-05-05T04:15:30.967Z,10.17
2023-05-05T04:20:35.364Z,11.75
2023-05-05T04:25:37.976Z,9.96
2023-05-05T04:30:40.968Z,10.38
2023-05-05T04:35:43.531Z,10.63
2023-05-05T04:40:46.285Z,10.12
2023-05-05T04:45:56.126Z,11.83
2023-05-05T04:51:03.833Z,9.76
2023-05-05T04:56:06.684Z,11.58
2023-05-05T05:01:09.254Z,10.14
2023-05-05T05:06:11.853Z,10.22
2023-05-05T05:11:14.472Z,11.99
2023-05-05T05:16:17.142Z,10.63
2023-05-05T05:21:20.270Z,10.22
2023-05-05T05:26:23.462Z,10.26
2023-05-05T05:31:26.091Z,10.64
2023-05-05T05:36:28.763Z,10.70
2023-05-05T05:41:31.290Z,11.25
2023-05-05T05:46:33.930Z,11.86
2023-05-05T05:51:36.722Z,12.15
2023-05-05T05:56:39.423Z,12.08
2023-05-05T06:01:42.169Z,12.43
2023-05-05T06:06:46.608Z,12.73
2023-05-05T06:11:49.263Z,12.91
2023-05-05T06:16:52.816Z,13.90
2023-05-05T06:21:55.499Z,15.29
2023-05-05T06:27:02.462Z,15.84
2023-05-05T06:32:08.361Z,15.93
2023-05-05T06:37:11.258Z,16.61
2023-05-05T06:42:13.788Z,17.43
2023-05-05T06:47:16.493Z,18.32
2023-05-05T06:52:19.095Z,18.61
2023-05-05T06:57:21.678Z,19.14
2023-05-05T07:02:26.550Z,18.93
2023-05-05T07:07:29.762Z,19.05
2023-05-05T07:12:32.409Z,19.45
2023-05-05T07:17:35.073Z,19.69
2023-05-05T07:22:37.627Z,19.84
2023-05-05T07:27:40.926Z,20.11
2023-05-05T07:32:43.557Z,19.84
2023-05-05T07:37:47.080Z,19.43
2023-05-05T07:42:49.633Z,18.90
2023-05-05T07:47:52.339Z,18.64
2023-05-05T07:53:02.369Z,18.25
2023-05-05T07:58:13.279Z,18.13
2023-05-05T08:03:15.948Z,18.00
2023-05-05T08:08:18.672Z,17.86
2023-05-05T08:13:21.276Z,18.01
2023-05-05T08:18:24.639Z,18.20
2023-05-05T08:23:27.398Z,17.85
2023-05-05T08:28:30.233Z,17.73
2023-05-05T08:33:33.185Z,17.77
2023-05-05T08:38:36.345Z,18.00
2023-05-05T08:43:39.437Z,17.73
2023-05-05T08:48:44.463Z,17.42
2023-05-05T08:54:05.151Z,17.91
2023-05-05T08:59:11.069Z,18.07
2023-05-05T09:04:14.195Z,17.87
2023-05-05T09:09:17.553Z,17.65
2023-05-05T09:14:20.185Z,17.66
2023-05-05T09:19:24.026Z,17.93
2023-05-05T09:24:26.707Z,18.22
2023-05-05T09:29:29.400Z,18.00
2023-05-05T09:34:35.960Z,18.17
2023-05-05T09:39:54.398Z,18.18
2023-05-05T09:44:59.673Z,18.03
2023-05-05T09:50:04.278Z,18.13
2023-05-05T09:55:17.906Z,17.97
2023-05-05T10:00:21.048Z,18.27
2023-05-05T10:05:23.803Z,18.38
2023-05-05T10:10:28.633Z,18.44
2023-05-05T10:15:31.830Z,17.86
2023-05-05T10:20:38.179Z,16.83
2023-05-05T10:25:55.566Z,16.44
2023-05-05T10:31:02.170Z,16.45
2023-05-05T10:36:07.731Z,15.52
2023-05-05T10:41:13.659Z,15.01
2023-05-05T10:46:16.559Z,14.97
2023-05-05T10:51:43.139Z,14.79
2023-05-05T10:56:47.111Z,14.51
2023-05-05T11:01:52.080Z,14.26
2023-05-05T11:07:27.097Z,14.29
2023-05-05T11:12:37.286Z,14.36
2023-05-05T11:17:52.558Z,14.42
2023-05-05T11:23:04.994Z,14.61
2023-05-05T11:28:17.441Z,14.56
2023-05-05T11:33:30.866Z,14.61
2023-05-05T11:39:11.563Z,14.56
2023-05-05T11:44:30.440Z,14.43
2023-05-05T11:49:34.951Z,14.11
2023-05-05T11:54:41.555Z,13.97
2023-05-05T12:00:08.229Z,14.05
2023-05-05T12:05:11.273Z,14.19
2023-05-05T12:10:21.913Z,14.19
2023-05-05T12:15:32.566Z,14.01
2023-05-05T12:20:36.621Z,13.95
2023-05-05T12:25:40.926Z,14.20
2023-05-05T12:30:43.514Z,14.31
2023-05-05T12:35:46.346Z,14.14
2023-05-05T12:40:53.930Z,14.19
2023-05-05T12:46:12.252Z,14.18
2023-05-05T12:51:23.470Z,14.36
2023-05-05T12:56:43.005Z,14.69
2023-05-05T13:01:54.084Z,14.51
2023-05-05T13:07:12.745Z,14.35
2023-05-05T13:12:19.170Z,14.27
2023-05-05T13:17:22.000Z,14.16
2023-05-05T13:22:24.816Z,14.13
2023-05-05T13:27:27.637Z,14.17
2023-05-05T13:32:30.554Z,14.18
2023-05-05T13:37:33.336Z,14.16
2023-05-05T13:42:35.999Z,14.31
2023-05-05T13:47:38.917Z,14.40
2023-05-05T13:52:42.087Z,14.20
2023-05-05T13:57:44.709Z,14.11
2023-05-05T14:02:49.868Z,14.18
2023-05-05T14:07:54.197Z,14.25
2023-05-05T14:12:57.525Z,14.22
2023-05-05T14:18:02.772Z,14.07
2023-05-05T14:23:05.595Z,14.12
2023-05-05T14:28:08.378Z,13.95
2023-05-05T14:33:11.100Z,13.89
2023-05-05T14:38:13.681Z,13.73
2023-05-05T14:43:16.311Z,13.61
2023-05-05T14:48:22.067Z,13.56
2023-05-05T14:53:24.692Z,13.60
2023-05-05T14:58:27.355Z,13.67
2023-05-05T15:03:30.229Z,13.69
2023-05-05T15:08:32.948Z,13.64
2023-05-05T15:13:38.514Z,13.70
2023-05-05T15:18:41.177Z,13.64
2023-05-05T15:23:43.798Z,13.56
2023-05-05T15:28:48.236Z,13.48
2023-05-05T15:33:52.430Z,13.43
2023-05-05T15:38:56.766Z,13.44
2023-05-05T15:44:00.508Z,13.47
2023-05-05T15:49:03.404Z,13.48
2023-05-05T15:54:06.075Z,13.46
2023-05-05T15:59:08.657Z,13.43
2023-05-05T16:04:11.271Z,13.29
2023-05-05T16:09:13.910Z,13.11
2023-05-05T16:14:16.530Z,12.90
2023-05-05T16:19:19.423Z,12.75
2023-05-05T16:24:22.897Z,12.65
2023-05-05T16:29:25.874Z,12.59
2023-05-05T16:34:28.536Z,12.51
2023-05-05T16:39:32.949Z,12.40
2023-05-05T16:44:35.784Z,12.34
2023-05-05T16:49:38.468Z,12.24
2023-05-05T16:54:41.739Z,12.10
2023-05-05T16:59:44.336Z,11.96
2023-05-05T17:04:47.264Z,11.78
2023-05-05T17:09:50.066Z,11.68
2023-05-05T17:14:52.637Z,11.60
2023-05-05T17:19:56.066Z,11.49
2023-05-05T17:24:58.752Z,11.38
2023-05-05T17:30:01.412Z,11.24
2023-05-05T17:35:04.280Z,11.09
2023-05-05T17:40:07.942Z,10.98
2023-05-05T17:45:11.527Z,10.85
2023-05-05T17:50:14.546Z,10.74
2023-05-05T17:55:17.250Z,10.63
2023-05-05T18:00:21.134Z,10.52
2023-05-05T18:05:23.678Z,10.37
2023-05-05T18:10:26.319Z,10.26
2023-05-05T18:15:30.083Z,10.13
2023-05-05T18:20:32.780Z,10.00
2023-05-05T18:25:35.476Z,9.86
2023-05-05T18:30:38.520Z,9.74
2023-05-05T18:35:41.416Z,9.63
2023-05-05T18:40:45.257Z,9.52
2023-05-05T18:45:47.883Z,9.40
2023-05-05T18:50:51.391Z,9.31
2023-05-05T18:55:53.980Z,9.19
2023-05-05T19:00:58.006Z,9.05
2023-05-05T19:06:06.037Z,8.90
2023-05-05T19:11:08.769Z,8.72
2023-05-05T19:16:11.925Z,8.55
2023-05-05T19:21:14.752Z,8.41
2023-05-05T19:26:17.341Z,8.27
2023-05-05T19:31:20.010Z,8.15
2023-05-05T19:36:23.058Z,8.03
2023-05-05T19:41:26.481Z,7.93
2023-05-05T19:46:29.707Z,7.82
2023-05-05T19:51:32.424Z,7.70
2023-05-05T19:56:35.319Z,7.59
2023-05-05T20:01:42.192Z,7.48
2023-05-05T20:06:44.812Z,7.36
2023-05-05T20:11:58.983Z,7.26
2023-05-05T20:17:02.805Z,7.13
2023-05-05T20:22:05.396Z,7.03
2023-05-05T20:27:32.191Z,6.95
2023-05-05T20:32:37.753Z,6.85
2023-05-05T20:37:41.409Z,6.78
2023-05-05T20:42:44.008Z,6.71
2023-05-05T20:47:46.689Z,6.61
2023-05-05T20:52:49.611Z,6.53
2023-05-05T20:57:52.194Z,6.43
2023-05-05T21:02:56.960Z,6.34
2023-05-05T21:08:01.053Z,6.23
2023-05-05T21:13:04.431Z,6.14
2023-05-05T21:18:07.705Z,6.05
2023-05-05T21:23:10.541Z,5.96
2023-05-05T21:28:13.096Z,5.86
2023-05-05T21:33:15.691Z,5.78
2023-05-05T21:38:18.468Z,5.69
2023-05-05T21:43:21.080Z,5.62
2023-05-05T21:48:23.647Z,5.53
2023-05-05T21:53:26.360Z,5.47
2023-05-05T21:58:29.328Z,5.42
2023-05-05T22:03:34.326Z,5.36
2023-05-05T22:08:37.092Z,5.31
2023-05-05T22:13:39.897Z,5.26
2023-05-05T22:18:42.450Z,5.20
2023-05-05T22:23:46.124Z,5.12
2023-05-05T22:28:48.736Z,5.05
2023-05-05T22:33:51.265Z,4.97
2023-05-05T22:38:53.862Z,4.88
2023-05-05T22:43:56.455Z,4.80
2023-05-05T22:48:59.060Z,4.75
2023-05-05T22:54:01.854Z,4.69
2023-05-05T22:59:05.618Z,4.63
2023-05-05T23:04:08.252Z,4.59
2023-05-05T23:09:10.804Z,4.55
2023-05-05T23:14:13.401Z,4.50
2023-05-05T23:19:15.981Z,4.45
2023-05-05T23:24:18.524Z,4.41
2023-05-05T23:29:21.241Z,4.32
2023-05-05T23:34:24.364Z,4.24
2023-05-05T23:39:27.021Z,4.18
2023-05-05T23:44:29.837Z,4.12
2023-05-05T23:49:32.505Z,4.09
2023-05-05T23:54:35.222Z,4.06
2023-05-05T23:59:39.228Z,4.05
